createdAt,value
2023-05-19T00:01:44.028Z,70.87
2023-05-19T00:04:12.443Z,71.59
2023-05-19T00:06:39.439Z,71.60
2023-05-19T00:09:07.820Z,71.71
2023-05-19T00:11:36.338Z,72.05
2023-05-19T00:14:05.064Z,72.78
2023-05-19T00:16:32.349Z,71.94
2023-05-19T00:19:00.204Z,71.69
2023-05-19T00:21:27.745Z,72.10
2023-05-19T00:23:54.962Z,72.06
2023-05-19T00:26:22.776Z,71.93
2023-05-19T00:28:50.630Z,72.08
2023-05-19T00:31:17.201Z,72.96
2023-05-19T00:33:43.716Z,74.04
2023-05-19T00:36:10.202Z,74.50
2023-05-19T00:38:37.535Z,72.87
2023-05-19T00:41:05.343Z,72.63
2023-05-19T00:43:34.356Z,72.62
2023-05-19T00:46:00.905Z,73.69
2023-05-19T00:48:27.450Z,72.92
2023-05-19T00:50:56.271Z,73.18
2023-05-19T00:53:23.345Z,72.57
2023-05-19T00:55:50.453Z,73.30
2023-05-19T00:58:17.177Z,74.09
2023-05-19T01:00:46.852Z,74.29
2023-05-19T01:03:13.558Z,74.96
2023-05-19T01:05:46.188Z,75.69
2023-05-19T01:08:12.724Z,75.42
2023-05-19T01:10:39.470Z,74.45
2023-05-19T01:13:07.362Z,74.90
2023-05-19T01:15:40.310Z,74.81
2023-05-19T01:18:16.824Z,74.56
2023-05-19T01:20:52.507Z,75.70
2023-05-19T01:23:36.885Z,74.79
2023-05-19T01:26:39.022Z,74.71
2023-05-19T01:29:24.055Z,75.27
2023-05-19T01:31:51.857Z,76.06
2023-05-19T01:34:20.645Z,75.90
2023-05-19T01:36:49.800Z,76.01
2023-05-19T01:39:16.979Z,75.94
2023-05-19T01:41:45.511Z,75.71
2023-05-19T01:44:12.201Z,76.38
2023-05-19T01:46:39.081Z,76.53
2023-05-19T01:49:06.666Z,75.80
2023-05-19T01:51:33.210Z,77.29
2023-05-19T01:53:59.708Z,76.43
2023-05-19T01:56:50.026Z,77.34
2023-05-19T01:59:37.088Z,76.57
2023-05-19T02:02:13.838Z,76.07
2023-05-19T02:04:51.063Z,75.52
2023-05-19T02:07:30.951Z,75.63
2023-05-19T02:10:22.727Z,75.56
2023-05-19T02:12:54.144Z,76.49
2023-05-19T02:15:25.966Z,75.87
2023-05-19T02:17:55.448Z,76.06
2023-05-19T02:20:24.512Z,77.22
2023-05-19T02:22:50.998Z,75.88
2023-05-19T02:25:17.630Z,76.34
2023-05-19T02:27:44.173Z,77.59
2023-05-19T02:30:10.900Z,77.39
2023-05-19T02:32:37.665Z,77.24
2023-05-19T02:35:04.892Z,77.07
2023-05-19T02:37:32.573Z,76.85
2023-05-19T02:39:59.249Z,76.39
2023-05-19T02:42:25.944Z,76.94
2023-05-19T02:44:54.242Z,77.38
2023-05-19T02:47:20.986Z,77.80
2023-05-19T02:49:47.672Z,76.62
2023-05-19T02:52:14.158Z,76.77
2023-05-19T02:54:40.843Z,75.46
2023-05-19T02:57:07.376Z,76.19
2023-05-19T02:59:33.989Z,76.66
2023-05-19T03:02:02.223Z,77.10
2023-05-19T03:04:29.799Z,78.42
2023-05-19T03:06:57.668Z,78.35
2023-05-19T03:09:24.253Z,77.89
2023-05-19T03:11:50.788Z,78.40
2023-05-19T03:14:18.789Z,78.30
2023-05-19T03:16:45.759Z,78.57
2023-05-19T03:19:12.688Z,79.17
2023-05-19T03:21:39.350Z,78.50
2023-05-19T03:24:06.755Z,77.85
2023-05-19T03:26:33.325Z,77.04
2023-05-19T03:28:59.734Z,77.82
2023-05-19T03:31:26.809Z,78.84
2023-05-19T03:33:53.426Z,77.91
2023-05-19T03:36:19.969Z,78.17
2023-05-19T03:38:46.528Z,77.99
2023-05-19T03:41:12.974Z,77.44
2023-05-19T03:43:41.934Z,78.02
2023-05-19T03:46:08.603Z,77.94
2023-05-19T03:48:35.132Z,78.92
2023-05-19T03:51:01.599Z,77.73
2023-05-19T03:53:30.301Z,77.69
2023-05-19T03:55:57.221Z,77.68
2023-05-19T03:58:24.071Z,76.66
2023-05-19T04:00:51.071Z,76.99
2023-05-19T04:03:17.550Z,76.62
2023-05-19T04:05:44.264Z,76.84
2023-05-19T04:08:10.806Z,77.27
2023-05-19T04:10:37.469Z,76.76
2023-05-19T04:13:03.895Z,76.89
2023-05-19T04:15:30.410Z,78.20
2023-05-19T04:17:57.231Z,78.55
2023-05-19T04:20:23.796Z,78.91
2023-05-19T04:22:50.276Z,78.36
2023-05-19T04:25:16.853Z,78.95
2023-05-19T04:27:43.494Z,79.44
2023-05-19T04:30:10.372Z,78.92
2023-05-19T04:32:37.869Z,77.61
2023-05-19T04:35:04.789Z,78.12
2023-05-19T04:37:31.519Z,77.75
2023-05-19T04:39:58.100Z,78.59
2023-05-19T04:42:26.065Z,77.81
2023-05-19T04:44:52.494Z,79.57
2023-05-19T04:47:21.543Z,78.96
2023-05-19T04:49:48.063Z,78.27
2023-05-19T04:52:14.555Z,78.78
2023-05-19T04:54:41.842Z,78.69
2023-05-19T04:57:10.451Z,78.79
2023-05-19T04:59:36.942Z,79.09
2023-05-19T05:02:04.360Z,79.40
2023-05-19T05:04:30.925Z,79.63
2023-05-19T05:06:57.392Z,80.41
2023-05-19T05:09:23.938Z,80.66
2023-05-19T05:11:51.493Z,80.77
2023-05-19T05:14:18.199Z,80.89
2023-05-19T05:16:45.226Z,80.98
2023-05-19T05:19:12.186Z,81.82
2023-05-19T05:21:38.941Z,81.66
2023-05-19T05:24:05.864Z,81.67
2023-05-19T05:26:34.424Z,82.04
2023-05-19T05:29:01.323Z,81.69
2023-05-19T05:31:27.760Z,81.72
2023-05-19T05:33:54.564Z,81.42
2023-05-19T05:36:21.156Z,81.37
2023-05-19T05:38:47.662Z,80.94
2023-05-19T05:41:14.153Z,80.21
2023-05-19T05:43:40.760Z,81.06
2023-05-19T05:46:07.382Z,80.74
2023-05-19T05:48:34.512Z,80.35
2023-05-19T05:51:01.198Z,79.24
2023-05-19T05:53:30.852Z,78.77
2023-05-19T05:55:57.696Z,79.97
2023-05-19T05:58:24.266Z,78.43
2023-05-19T06:00:51.534Z,78.40
2023-05-19T06:03:18.654Z,77.04
2023-05-19T06:05:45.320Z,77.54
2023-05-19T06:08:11.852Z,77.66
2023-05-19T06:10:41.604Z,76.32
2023-05-19T06:13:08.064Z,75.65
2023-05-19T06:15:34.579Z,75.57
2023-05-19T06:18:01.272Z,76.31
2023-05-19T06:20:28.030Z,74.98
2023-05-19T06:22:54.585Z,75.77
2023-05-19T06:25:21.195Z,75.12
2023-05-19T06:27:47.795Z,75.20
2023-05-19T06:30:14.500Z,74.02
2023-05-19T06:32:41.136Z,73.61
2023-05-19T06:35:08.041Z,73.82
2023-05-19T06:37:34.581Z,73.19
2023-05-19T06:40:01.026Z,72.36
2023-05-19T06:42:27.532Z,72.04
2023-05-19T06:44:54.064Z,71.38
2023-05-19T06:47:20.645Z,70.26
2023-05-19T06:49:50.797Z,71.75
2023-05-19T06:52:17.740Z,70.04
2023-05-19T06:54:44.273Z,69.42
2023-05-19T06:57:10.771Z,68.89
2023-05-19T06:59:37.645Z,68.30
2023-05-19T07:02:04.759Z,67.84
2023-05-19T07:04:31.356Z,67.51
2023-05-19T07:06:57.893Z,66.34
2023-05-19T07:09:24.365Z,66.14
2023-05-19T07:11:50.882Z,65.72
2023-05-19T07:14:17.295Z,65.03
2023-05-19T07:16:43.935Z,65.10
2023-05-19T07:19:10.518Z,65.33
2023-05-19T07:21:37.030Z,64.33
2023-05-19T07:24:03.746Z,64.52
2023-05-19T07:26:30.307Z,63.70
2023-05-19T07:28:57.829Z,63.05
2023-05-19T07:31:24.383Z,62.65
2023-05-19T07:33:52.977Z,61.12
2023-05-19T07:36:21.096Z,60.75
2023-05-19T07:38:47.749Z,59.97
2023-05-19T07:41:14.590Z,58.81
2023-05-19T07:43:41.172Z,58.56
2023-05-19T07:46:07.629Z,58.89
2023-05-19T07:48:34.218Z,57.07
2023-05-19T07:51:00.734Z,56.68
2023-05-19T07:53:27.948Z,56.80
2023-05-19T07:55:55.465Z,56.86
2023-05-19T07:58:22.919Z,55.54
2023-05-19T08:00:49.384Z,54.54
2023-05-19T08:03:18.407Z,55.02
2023-05-19T08:05:45.752Z,54.43
2023-05-19T08:08:12.799Z,54.23
2023-05-19T08:10:39.510Z,53.43
2023-05-19T08:13:06.133Z,54.54
2023-05-19T08:15:32.629Z,51.53
2023-05-19T08:17:59.306Z,50.98
2023-05-19T08:20:25.772Z,50.80
2023-05-19T08:22:52.426Z,49.39
2023-05-19T08:25:19.745Z,48.43
2023-05-19T08:27:46.412Z,47.08
2023-05-19T08:30:13.429Z,47.40
2023-05-19T08:32:40.035Z,47.75
2023-05-19T08:35:10.490Z,45.77
2023-05-19T08:37:38.266Z,46.36
2023-05-19T08:40:05.868Z,46.97
2023-05-19T08:42:35.806Z,45.87
2023-05-19T08:45:02.742Z,43.27
2023-05-19T08:47:29.627Z,42.95
2023-05-19T08:50:05.263Z,42.53
2023-05-19T08:52:54.061Z,43.16
2023-05-19T08:56:01.759Z,41.39
2023-05-19T08:58:30.900Z,40.99
2023-05-19T09:00:57.962Z,41.42
2023-05-19T09:03:26.497Z,41.20
2023-05-19T09:05:53.139Z,41.95
2023-05-19T09:08:22.796Z,40.34
2023-05-19T09:10:49.413Z,41.00
2023-05-19T09:13:15.961Z,39.62
2023-05-19T09:15:44.415Z,40.08
2023-05-19T09:18:12.889Z,39.57
2023-05-19T09:20:41.466Z,39.63
2023-05-19T09:23:10.214Z,40.06
2023-05-19T09:25:36.835Z,41.05
2023-05-19T09:28:03.522Z,38.89
2023-05-19T09:30:30.058Z,36.80
2023-05-19T09:32:56.703Z,36.64
2023-05-19T09:35:23.774Z,37.51
2023-05-19T09:37:50.298Z,36.79
2023-05-19T09:40:17.069Z,38.30
2023-05-19T09:42:44.344Z,36.98
2023-05-19T09:45:11.498Z,37.00
2023-05-19T09:47:39.763Z,36.92
2023-05-19T09:50:08.605Z,37.09
2023-05-19T09:52:39.009Z,37.62
2023-05-19T09:55:09.265Z,37.09
2023-05-19T09:57:37.265Z,39.31
2023-05-19T10:00:20.815Z,39.08
2023-05-19T10:02:48.480Z,37.58
2023-05-19T10:05:17.850Z,38.01
2023-05-19T10:07:45.733Z,39.25
2023-05-19T10:10:13.993Z,39.09
2023-05-19T10:12:41.205Z,38.31
2023-05-19T10:15:12.446Z,38.40
2023-05-19T10:17:40.682Z,39.62
2023-05-19T10:20:12.789Z,38.35
2023-05-19T10:22:39.787Z,37.31
2023-05-19T10:25:07.483Z,38.78
2023-05-19T10:27:36.848Z,38.33
2023-05-19T10:30:13.711Z,37.63
2023-05-19T10:32:44.205Z,37.67
2023-05-19T10:35:16.701Z,36.91
2023-05-19T10:38:20.643Z,37.12
2023-05-19T10:41:08.979Z,35.11
2023-05-19T10:44:06.489Z,36.58
2023-05-19T10:46:33.240Z,37.55
2023-05-19T10:48:59.996Z,35.16
2023-05-19T10:51:33.163Z,37.21
2023-05-19T10:54:03.004Z,35.92
2023-05-19T10:56:32.880Z,35.88
2023-05-19T10:59:00.063Z,35.47
2023-05-19T11:01:32.024Z,37.00
2023-05-19T11:04:05.158Z,34.51
2023-05-19T11:06:38.750Z,35.95
2023-05-19T11:09:19.452Z,35.11
2023-05-19T11:11:54.296Z,34.98
2023-05-19T11:14:23.118Z,33.15
2023-05-19T11:16:52.101Z,34.51
2023-05-19T11:19:28.501Z,34.33
2023-05-19T11:21:55.814Z,34.74
2023-05-19T11:24:45.829Z,32.61
2023-05-19T11:27:24.646Z,32.38
2023-05-19T11:29:54.088Z,31.75
2023-05-19T11:32:22.628Z,30.55
2023-05-19T11:34:50.002Z,32.54
2023-05-19T11:37:16.700Z,31.53
2023-05-19T11:39:45.379Z,32.67
2023-05-19T11:42:11.878Z,31.83
2023-05-19T11:44:38.560Z,34.99
2023-05-19T11:47:05.811Z,31.89
2023-05-19T11:49:32.825Z,32.42
2023-05-19T11:52:03.272Z,32.52
2023-05-19T11:54:32.271Z,33.45
2023-05-19T11:57:03.107Z,32.54
2023-05-19T11:59:35.763Z,31.79
2023-05-19T12:02:16.784Z,29.02
2023-05-19T12:04:43.603Z,26.84
2023-05-19T12:07:14.618Z,29.36
2023-05-19T12:09:41.159Z,29.32
2023-05-19T12:12:07.950Z,27.73
2023-05-19T12:14:35.798Z,28.28
2023-05-19T12:17:17.008Z,29.92
2023-05-19T12:19:45.118Z,27.69
2023-05-19T12:22:12.450Z,27.90
2023-05-19T12:24:39.467Z,29.22
2023-05-19T12:27:12.451Z,30.45
2023-05-19T12:29:41.662Z,29.83
2023-05-19T12:32:09.245Z,29.13
2023-05-19T12:34:39.493Z,28.37
2023-05-19T12:37:12.618Z,32.26
2023-05-19T12:39:39.886Z,32.72
2023-05-19T12:42:10.830Z,35.55
2023-05-19T12:44:39.231Z,34.01
2023-05-19T12:47:07.090Z,34.53
2023-05-19T12:49:34.095Z,32.94
2023-05-19T12:52:07.096Z,33.17
2023-05-19T12:54:37.071Z,32.24
2023-05-19T12:57:06.050Z,31.21
2023-05-19T12:59:38.927Z,33.00
2023-05-19T13:02:06.396Z,32.17
2023-05-19T13:04:33.128Z,31.24
2023-05-19T13:06:59.630Z,32.57
2023-05-19T13:09:26.777Z,34.63
2023-05-19T13:11:54.697Z,33.10
2023-05-19T13:14:21.617Z,34.84
2023-05-19T13:16:48.156Z,34.07
2023-05-19T13:19:25.112Z,32.44
2023-05-19T13:21:52.417Z,32.98
2023-05-19T13:24:18.961Z,32.22
2023-05-19T13:26:45.646Z,36.50
2023-05-19T13:29:12.230Z,34.45
2023-05-19T13:31:38.798Z,34.18
2023-05-19T13:34:05.434Z,33.05
2023-05-19T13:36:33.321Z,32.65
2023-05-19T13:39:00.822Z,30.99
2023-05-19T13:41:29.233Z,32.91
2023-05-19T13:44:01.797Z,31.25
2023-05-19T13:46:40.623Z,32.03
2023-05-19T13:49:11.699Z,31.72
2023-05-19T13:51:38.362Z,30.82
2023-05-19T13:54:05.032Z,31.62
2023-05-19T13:56:31.754Z,33.28
2023-05-19T13:58:58.330Z,32.16
2023-05-19T14:01:24.969Z,32.71
2023-05-19T14:03:51.674Z,30.64
2023-05-19T14:06:18.300Z,31.51
2023-05-19T14:08:45.537Z,31.50
2023-05-19T14:11:19.836Z,31.53
2023-05-19T14:13:49.069Z,31.64
2023-05-19T14:16:18.774Z,31.74
2023-05-19T14:18:45.482Z,31.30
2023-05-19T14:21:12.158Z,29.57
2023-05-19T14:23:38.763Z,29.14
2023-05-19T14:26:05.455Z,31.73
2023-05-19T14:28:31.980Z,28.80
2023-05-19T14:30:58.634Z,29.60
2023-05-19T14:33:25.077Z,28.80
2023-05-19T14:35:52.764Z,28.64
2023-05-19T14:38:19.337Z,28.66
2023-05-19T14:40:45.840Z,29.08
2023-05-19T14:43:12.313Z,30.39
2023-05-19T14:45:38.946Z,29.75
2023-05-19T14:48:05.732Z,29.85
2023-05-19T14:50:32.423Z,28.24
2023-05-19T14:52:59.134Z,28.57
2023-05-19T14:55:25.677Z,30.01
2023-05-19T14:57:52.134Z,28.96
2023-05-19T15:00:21.684Z,29.66
2023-05-19T15:02:49.514Z,30.30
2023-05-19T15:05:16.277Z,30.33
2023-05-19T15:07:42.816Z,31.11
2023-05-19T15:10:09.947Z,30.31
2023-05-19T15:12:36.949Z,30.99
2023-05-19T15:15:03.960Z,32.29
2023-05-19T15:17:32.735Z,33.01
2023-05-19T15:19:59.210Z,29.25
2023-05-19T15:22:26.295Z,29.00
2023-05-19T15:24:52.780Z,30.34
2023-05-19T15:27:20.752Z,27.99
2023-05-19T15:29:47.219Z,28.82
2023-05-19T15:32:13.758Z,27.61
2023-05-19T15:34:40.667Z,28.70
2023-05-19T15:37:09.433Z,28.99
2023-05-19T15:39:36.188Z,31.64
2023-05-19T15:42:02.753Z,29.94
2023-05-19T15:44:29.981Z,31.87
2023-05-19T15:46:56.472Z,28.93
2023-05-19T15:49:25.012Z,28.21
2023-05-19T15:51:51.862Z,29.85
2023-05-19T15:54:18.715Z,29.38
2023-05-19T15:56:45.408Z,31.40
2023-05-19T15:59:11.882Z,30.55
2023-05-19T16:01:38.507Z,31.04
2023-05-19T16:04:05.147Z,30.38
2023-05-19T16:06:32.039Z,28.62
2023-05-19T16:08:58.482Z,29.54
2023-05-19T16:11:24.966Z,29.96
2023-05-19T16:13:51.664Z,29.59
2023-05-19T16:16:18.829Z,32.48
2023-05-19T16:18:45.651Z,31.36
2023-05-19T16:21:12.207Z,30.98
2023-05-19T16:23:38.734Z,30.07
2023-05-19T16:26:05.180Z,29.91
2023-05-19T16:28:32.388Z,29.24
2023-05-19T16:30:59.867Z,30.44
2023-05-19T16:33:27.249Z,30.54
2023-05-19T16:35:53.803Z,32.93
2023-05-19T16:38:20.434Z,30.45
2023-05-19T16:40:46.985Z,30.89
2023-05-19T16:43:13.458Z,30.57
2023-05-19T16:45:39.950Z,31.28
2023-05-19T16:48:06.517Z,32.35
2023-05-19T16:50:33.150Z,32.03
2023-05-19T16:52:59.672Z,32.16
2023-05-19T16:55:26.815Z,31.65
2023-05-19T16:57:53.296Z,31.49
2023-05-19T17:00:19.923Z,32.12
2023-05-19T17:02:46.523Z,32.39
2023-05-19T17:05:13.168Z,31.27
2023-05-19T17:07:39.916Z,32.56
2023-05-19T17:10:06.894Z,31.13
2023-05-19T17:12:33.402Z,31.74
2023-05-19T17:15:00.186Z,31.90
2023-05-19T17:17:26.743Z,32.29
2023-05-19T17:19:53.414Z,33.89
2023-05-19T17:22:20.155Z,33.23
2023-05-19T17:24:47.228Z,34.50
2023-05-19T17:27:14.985Z,34.20
2023-05-19T17:29:41.511Z,32.51
2023-05-19T17:32:08.078Z,33.11
2023-05-19T17:34:34.693Z,33.93
2023-05-19T17:37:01.503Z,33.51
2023-05-19T17:39:28.031Z,34.55
2023-05-19T17:41:54.603Z,34.23
2023-05-19T17:44:21.319Z,34.26
2023-05-19T17:46:50.290Z,34.86
2023-05-19T17:49:16.870Z,36.16
2023-05-19T17:51:46.039Z,34.88
2023-05-19T17:54:12.952Z,35.49
2023-05-19T17:56:42.320Z,35.17
2023-05-19T17:59:09.173Z,35.65
2023-05-19T18:01:36.108Z,34.89
2023-05-19T18:04:03.681Z,36.02
2023-05-19T18:06:31.727Z,35.42
2023-05-19T18:09:00.780Z,35.02
2023-05-19T18:11:27.581Z,35.10
2023-05-19T18:13:54.119Z,36.33
2023-05-19T18:16:20.705Z,37.16
2023-05-19T18:18:50.391Z,36.30
2023-05-19T18:21:18.154Z,37.13
2023-05-19T18:23:45.729Z,36.57
2023-05-19T18:26:13.083Z,38.96
2023-05-19T18:28:40.492Z,36.65
2023-05-19T18:31:08.908Z,38.37
2023-05-19T18:33:35.434Z,37.46
2023-05-19T18:36:02.064Z,38.05
2023-05-19T18:38:28.605Z,37.74
2023-05-19T18:40:56.605Z,38.09
2023-05-19T18:43:23.119Z,37.62
2023-05-19T18:45:49.802Z,37.75
2023-05-19T18:48:16.404Z,39.32
2023-05-19T18:50:44.576Z,39.41
2023-05-19T18:53:11.800Z,40.60
2023-05-19T18:55:38.627Z,39.40
2023-05-19T18:58:06.155Z,40.63
2023-05-19T19:00:33.285Z,41.48
2023-05-19T19:03:00.114Z,40.05
2023-05-19T19:05:26.648Z,41.52
2023-05-19T19:07:53.395Z,41.53
2023-05-19T19:10:20.206Z,42.77
2023-05-19T19:12:46.720Z,43.05
2023-05-19T19:15:14.106Z,42.93
2023-05-19T19:17:41.073Z,43.10
2023-05-19T19:20:08.707Z,43.84
2023-05-19T19:22:35.383Z,42.96
2023-05-19T19:25:01.906Z,44.00
2023-05-19T19:27:31.260Z,44.08
2023-05-19T19:30:00.344Z,43.35
2023-05-19T19:32:27.102Z,43.19
2023-05-19T19:34:53.644Z,43.50
2023-05-19T19:37:20.208Z,45.27
2023-05-19T19:39:46.852Z,45.42
2023-05-19T19:42:13.512Z,45.25
2023-05-19T19:44:40.325Z,44.53
2023-05-19T19:47:07.076Z,45.67
2023-05-19T19:49:33.886Z,44.63
2023-05-19T19:52:00.397Z,45.54
2023-05-19T19:54:26.906Z,44.74
2023-05-19T19:56:53.583Z,46.17
2023-05-19T19:59:20.351Z,45.60
2023-05-19T20:01:46.971Z,47.20
2023-05-19T20:04:16.531Z,46.75
2023-05-19T20:06:43.238Z,47.14
2023-05-19T20:09:09.805Z,46.68
2023-05-19T20:11:36.321Z,47.14
2023-05-19T20:14:02.782Z,47.78
2023-05-19T20:16:29.476Z,48.66
2023-05-19T20:18:56.177Z,48.01
2023-05-19T20:21:22.775Z,48.52
2023-05-19T20:23:50.938Z,49.47
2023-05-19T20:26:17.521Z,49.59
2023-05-19T20:28:44.180Z,51.43
2023-05-19T20:31:10.963Z,52.07
2023-05-19T20:33:39.927Z,53.83
2023-05-19T20:36:07.426Z,54.83
2023-05-19T20:38:33.851Z,56.52
2023-05-19T20:41:01.911Z,57.86
2023-05-19T20:43:28.351Z,58.71
2023-05-19T20:45:54.949Z,58.99
2023-05-19T20:48:21.634Z,59.91
2023-05-19T20:50:51.245Z,60.52
2023-05-19T20:53:19.518Z,61.04
2023-05-19T20:55:46.261Z,61.40
2023-05-19T20:58:12.792Z,60.60
2023-05-19T21:00:42.316Z,62.44
2023-05-19T21:03:08.994Z,62.38
2023-05-19T21:05:36.371Z,62.82
2023-05-19T21:08:03.206Z,62.34
2023-05-19T21:10:29.751Z,62.29
2023-05-19T21:12:58.839Z,62.80
2023-05-19T21:15:26.906Z,63.09
2023-05-19T21:17:55.923Z,62.55
2023-05-19T21:20:22.591Z,63.35
2023-05-19T21:22:51.352Z,62.92
2023-05-19T21:25:18.087Z,63.98
2023-05-19T21:27:46.212Z,63.40
2023-05-19T21:30:15.547Z,64.01
2023-05-19T21:32:42.473Z,63.49
2023-05-19T21:35:09.340Z,64.13
2023-05-19T21:37:36.314Z,63.18
2023-05-19T21:40:03.014Z,63.87
2023-05-19T21:42:29.584Z,64.20
2023-05-19T21:44:56.113Z,64.46
2023-05-19T21:47:22.671Z,63.63
2023-05-19T21:49:49.178Z,63.85
2023-05-19T21:52:16.049Z,64.17
2023-05-19T21:54:42.621Z,63.84
2023-05-19T21:57:11.066Z,64.00
2023-05-19T21:59:40.580Z,64.47
2023-05-19T22:02:07.151Z,63.74
2023-05-19T22:04:33.758Z,63.53
2023-05-19T22:07:00.532Z,62.96
2023-05-19T22:09:27.112Z,62.59
2023-05-19T22:11:53.587Z,62.53
2023-05-19T22:14:20.013Z,62.93
2023-05-19T22:16:47.578Z,62.54
2023-05-19T22:19:14.884Z,62.87
2023-05-19T22:21:41.315Z,63.20
2023-05-19T22:24:07.964Z,62.80
2023-05-19T22:26:35.731Z,62.84
2023-05-19T22:29:04.748Z,62.69
2023-05-19T22:31:31.206Z,62.57
2023-05-19T22:33:57.814Z,62.61
2023-05-19T22:36:24.441Z,62.84
2023-05-19T22:38:50.977Z,62.88
2023-05-19T22:41:17.502Z,62.97
2023-05-19T22:43:44.405Z,63.54
2023-05-19T22:46:11.318Z,62.98
2023-05-19T22:48:37.942Z,63.37
2023-05-19T22:51:04.752Z,63.69
2023-05-19T22:53:31.232Z,63.21
2023-05-19T22:55:57.702Z,63.87
2023-05-19T22:58:24.136Z,64.29
2023-05-19T23:00:50.779Z,64.38
2023-05-19T23:03:18.232Z,64.24
2023-05-19T23:05:44.754Z,64.67
2023-05-19T23:08:11.296Z,64.62
2023-05-19T23:10:38.238Z,64.67
2023-05-19T23:13:04.831Z,64.76
2023-05-19T23:15:31.482Z,65.31
2023-05-19T23:17:58.423Z,64.83
2023-05-19T23:20:27.941Z,64.79
2023-05-19T23:22:54.552Z,65.16
2023-05-19T23:25:21.088Z,66.11
2023-05-19T23:27:47.796Z,65.66
2023-05-19T23:30:14.264Z,65.42
2023-05-19T23:32:41.071Z,65.45
2023-05-19T23:35:16.771Z,65.26
2023-05-19T23:37:43.440Z,65.74
2023-05-19T23:40:10.386Z,65.69
2023-05-19T23:42:37.071Z,65.95
2023-05-19T23:45:04.381Z,65.74
2023-05-19T23:47:31.496Z,66.54
2023-05-19T23:49:58.034Z,65.99
2023-05-19T23:52:24.600Z,65.74
2023-05-19T23:54:51.063Z,66.42
2023-05-19T23:57:17.601Z,65.76
2023-05-19T23:59:44.472Z,66.29
